createdAt,value
2022-08-30T00:00:35.957Z,5.72
2022-08-30T00:02:37.408Z,5.78
2022-08-30T00:04:39.043Z,6.20
2022-08-30T00:06:40.811Z,5.22
2022-08-30T00:08:42.547Z,5.43
2022-08-30T00:10:44.743Z,5.05
2022-08-30T00:12:46.139Z,4.95
2022-08-30T00:14:47.718Z,5.15
2022-08-30T00:16:49.023Z,5.50
2022-08-30T00:18:50.867Z,5.07
2022-08-30T00:20:53.405Z,5.20
2022-08-30T00:22:54.752Z,5.70
2022-08-30T00:24:56.185Z,5.65
2022-08-30T00:26:57.564Z,5.97
2022-08-30T00:28:58.860Z,5.97
2022-08-30T00:31:01.920Z,6.38
2022-08-30T00:33:03.242Z,6.82
2022-08-30T00:35:05.430Z,5.47
2022-08-30T00:37:06.762Z,5.68
2022-08-30T00:39:08.094Z,5.00
2022-08-30T00:41:09.527Z,5.72
2022-08-30T00:43:19.489Z,6.20
2022-08-30T00:45:24.236Z,6.28
2022-08-30T00:47:26.164Z,6.00
2022-08-30T00:49:29.971Z,5.38
2022-08-30T00:51:33.238Z,5.57
2022-08-30T00:53:36.647Z,5.35
2022-08-30T00:55:38.933Z,5.90
2022-08-30T00:57:42.280Z,5.13
2022-08-30T00:59:46.690Z,5.03
2022-08-30T01:01:48.059Z,5.80
2022-08-30T01:03:49.935Z,5.40
2022-08-30T01:05:51.632Z,6.28
2022-08-30T01:07:52.946Z,6.15
2022-08-30T01:09:54.623Z,6.90
2022-08-30T01:11:57.243Z,6.10
2022-08-30T01:13:59.170Z,6.30
2022-08-30T01:16:01.039Z,5.70
2022-08-30T01:18:04.318Z,6.10
2022-08-30T01:20:10.847Z,5.32
2022-08-30T01:22:12.130Z,5.57
2022-08-30T01:24:13.950Z,5.55
2022-08-30T01:26:15.906Z,5.53
2022-08-30T01:28:22.176Z,6.13
2022-08-30T01:30:23.984Z,5.97
2022-08-30T01:32:29.225Z,5.47
2022-08-30T01:34:30.744Z,6.22
2022-08-30T01:36:32.151Z,5.30
2022-08-30T01:38:36.642Z,5.50
2022-08-30T01:40:38.060Z,5.30
2022-08-30T01:42:39.454Z,5.45
2022-08-30T01:44:40.839Z,5.72
2022-08-30T01:46:47.006Z,5.78
2022-08-30T01:48:50.327Z,5.57
2022-08-30T01:50:55.139Z,5.82
2022-08-30T01:52:56.612Z,5.82
2022-08-30T01:54:57.960Z,5.32
2022-08-30T01:56:59.291Z,6.15
2022-08-30T01:59:03.147Z,5.53
2022-08-30T02:01:06.558Z,6.30
2022-08-30T02:03:08.148Z,5.88
2022-08-30T02:05:09.661Z,5.70
2022-08-30T02:07:11.583Z,5.63
2022-08-30T02:09:13.090Z,5.60
2022-08-30T02:11:14.884Z,5.80
2022-08-30T02:13:16.388Z,6.07
2022-08-30T02:15:17.898Z,5.75
2022-08-30T02:17:19.390Z,5.82
2022-08-30T02:19:20.800Z,6.30
2022-08-30T02:21:22.134Z,5.70
2022-08-30T02:23:23.490Z,5.47
2022-08-30T02:25:24.868Z,6.15
2022-08-30T02:27:27.267Z,6.68
2022-08-30T02:29:29.564Z,6.85
2022-08-30T02:31:30.891Z,5.93
2022-08-30T02:33:32.239Z,6.13
2022-08-30T02:35:33.682Z,6.57
2022-08-30T02:37:35.646Z,5.57
2022-08-30T02:39:36.959Z,5.30
2022-08-30T02:41:38.971Z,5.72
2022-08-30T02:43:40.509Z,5.70
2022-08-30T02:45:41.978Z,5.38
2022-08-30T02:47:46.843Z,5.97
2022-08-30T02:49:48.506Z,6.65
2022-08-30T02:51:49.865Z,5.50
2022-08-30T02:53:51.265Z,6.10
2022-08-30T02:55:52.596Z,5.72
2022-08-30T02:57:53.942Z,6.00
2022-08-30T02:59:55.305Z,5.45
2022-08-30T03:01:56.635Z,5.60
2022-08-30T03:03:57.965Z,5.30
2022-08-30T03:05:59.366Z,5.10
2022-08-30T03:08:01.316Z,5.20
2022-08-30T03:10:02.725Z,5.25
2022-08-30T03:12:06.294Z,5.68
2022-08-30T03:14:07.647Z,5.60
2022-08-30T03:16:09.124Z,5.22
2022-08-30T03:18:10.526Z,4.90
2022-08-30T03:20:11.928Z,5.22
2022-08-30T03:22:13.315Z,4.88
2022-08-30T03:24:14.731Z,4.53
2022-08-30T03:26:16.220Z,5.90
2022-08-30T03:28:17.601Z,5.22
2022-08-30T03:30:19.909Z,5.40
2022-08-30T03:32:21.590Z,5.53
2022-08-30T03:34:23.556Z,5.80
2022-08-30T03:36:24.898Z,4.93
2022-08-30T03:38:26.437Z,5.13
2022-08-30T03:40:27.995Z,5.30
2022-08-30T03:42:29.571Z,5.57
2022-08-30T03:44:30.898Z,6.00
2022-08-30T03:46:36.804Z,5.45
2022-08-30T03:48:38.728Z,6.00
2022-08-30T03:50:40.569Z,6.30
2022-08-30T03:52:41.946Z,6.70
2022-08-30T03:54:43.250Z,6.22
2022-08-30T03:56:44.619Z,6.38
2022-08-30T03:58:45.938Z,6.22
2022-08-30T04:00:47.377Z,6.47
2022-08-30T04:02:48.807Z,5.90
2022-08-30T04:04:50.331Z,6.15
2022-08-30T04:06:51.677Z,5.93
2022-08-30T04:08:53.119Z,5.78
2022-08-30T04:10:55.522Z,5.60
2022-08-30T04:12:56.836Z,5.70
2022-08-30T04:14:58.399Z,5.28
2022-08-30T04:16:59.842Z,5.72
2022-08-30T04:19:01.210Z,5.50
2022-08-30T04:21:03.185Z,5.43
2022-08-30T04:23:07.249Z,5.75
2022-08-30T04:25:08.844Z,5.63
2022-08-30T04:27:20.151Z,5.63
2022-08-30T04:29:21.636Z,5.80
2022-08-30T04:31:23.104Z,6.30
2022-08-30T04:33:24.797Z,5.80
2022-08-30T04:35:26.287Z,6.88
2022-08-30T04:37:27.783Z,6.70
2022-08-30T04:39:29.480Z,6.43
2022-08-30T04:41:30.762Z,6.10
2022-08-30T04:43:32.086Z,6.00
2022-08-30T04:45:33.586Z,5.13
2022-08-30T04:47:35.248Z,5.47
2022-08-30T04:49:36.606Z,5.90
2022-08-30T04:51:37.909Z,5.00
2022-08-30T04:53:39.711Z,5.97
2022-08-30T04:55:43.274Z,5.95
2022-08-30T04:57:44.606Z,6.05
2022-08-30T04:59:45.914Z,6.00
2022-08-30T05:01:48.555Z,5.82
2022-08-30T05:03:50.203Z,5.80
2022-08-30T05:05:51.731Z,5.97
2022-08-30T05:07:53.088Z,5.43
2022-08-30T05:09:54.663Z,6.28
2022-08-30T05:11:56.873Z,5.57
2022-08-30T05:13:58.307Z,5.65
2022-08-30T05:16:00.527Z,5.80
2022-08-30T05:18:02.283Z,6.35
2022-08-30T05:20:04.045Z,7.50
2022-08-30T05:22:05.406Z,6.38
2022-08-30T05:24:06.848Z,6.65
2022-08-30T05:26:12.995Z,6.60
2022-08-30T05:28:14.494Z,6.80
2022-08-30T05:30:16.610Z,7.40
2022-08-30T05:32:19.017Z,7.18
2022-08-30T05:34:20.708Z,6.50
2022-08-30T05:36:23.672Z,6.95
2022-08-30T05:38:25.009Z,7.00
2022-08-30T05:40:26.497Z,6.45
2022-08-30T05:42:31.253Z,7.05
2022-08-30T05:44:32.599Z,7.20
2022-08-30T05:48:40.956Z,7.55
2022-08-30T05:50:42.365Z,6.57
2022-08-30T05:52:44.970Z,6.55
2022-08-30T05:54:46.746Z,6.35
2022-08-30T05:56:48.396Z,6.47
2022-08-30T05:58:49.767Z,6.20
2022-08-30T06:00:51.055Z,6.80
2022-08-30T06:02:53.934Z,6.45
2022-08-30T06:04:55.510Z,7.93
2022-08-30T06:06:58.774Z,7.18
2022-08-30T06:09:00.097Z,7.20
2022-08-30T06:11:02.317Z,7.20
2022-08-30T06:13:03.647Z,7.20
2022-08-30T06:15:05.244Z,6.78
2022-08-30T06:17:07.323Z,6.85
2022-08-30T06:19:09.734Z,7.00
2022-08-30T06:21:18.410Z,7.20
2022-08-30T06:23:19.754Z,6.53
2022-08-30T06:25:21.268Z,6.80
2022-08-30T06:27:22.576Z,6.57
2022-08-30T06:29:23.967Z,7.90
2022-08-30T06:31:25.965Z,6.50
2022-08-30T06:33:27.267Z,7.38
2022-08-30T06:35:29.541Z,7.22
2022-08-30T06:37:33.005Z,6.82
2022-08-30T06:39:35.730Z,7.65
2022-08-30T06:41:38.801Z,6.53
2022-08-30T06:43:40.534Z,7.22
2022-08-30T06:45:41.934Z,6.95
2022-08-30T06:47:44.942Z,6.90
2022-08-30T06:49:46.364Z,7.30
2022-08-30T06:51:47.831Z,7.25
2022-08-30T06:53:50.183Z,6.63
2022-08-30T06:56:22.202Z,6.57
2022-08-30T06:58:24.339Z,7.10
2022-08-30T07:00:25.940Z,7.28
2022-08-30T07:02:27.524Z,7.43
2022-08-30T07:04:28.847Z,6.88
2022-08-30T07:06:30.370Z,6.97
2022-08-30T07:08:31.715Z,6.25
2022-08-30T07:10:33.060Z,6.95
2022-08-30T07:12:34.733Z,6.68
2022-08-30T07:14:36.568Z,6.38
2022-08-30T07:16:37.930Z,6.10
2022-08-30T07:18:51.706Z,6.90
2022-08-30T07:20:53.152Z,7.15
2022-08-30T07:22:54.471Z,7.25
2022-08-30T07:24:56.365Z,7.05
2022-08-30T07:26:57.728Z,7.68
2022-08-30T07:28:59.150Z,6.80
2022-08-30T07:31:00.526Z,6.85
2022-08-30T07:33:02.360Z,6.30
2022-08-30T07:35:04.220Z,7.68
2022-08-30T07:37:05.550Z,6.57
2022-08-30T07:39:07.260Z,7.22
2022-08-30T07:41:08.624Z,6.97
2022-08-30T07:43:10.073Z,6.68
2022-08-30T07:45:12.340Z,7.25
2022-08-30T07:47:13.633Z,6.88
2022-08-30T07:49:15.043Z,6.47
2022-08-30T07:51:20.153Z,6.28
2022-08-30T07:53:22.350Z,7.07
2022-08-30T07:55:24.337Z,6.90
2022-08-30T07:57:26.172Z,7.03
2022-08-30T07:59:27.508Z,7.10
2022-08-30T08:01:29.233Z,6.65
2022-08-30T08:03:30.757Z,6.13
2022-08-30T08:05:32.166Z,6.30
2022-08-30T08:07:34.391Z,7.10
2022-08-30T08:09:37.363Z,6.97
2022-08-30T08:11:43.469Z,6.90
2022-08-30T08:13:54.166Z,7.00
2022-08-30T08:15:55.981Z,7.18
2022-08-30T08:17:57.434Z,6.55
2022-08-30T08:19:58.755Z,6.25
2022-08-30T08:22:21.090Z,6.38
2022-08-30T08:24:23.372Z,6.82
2022-08-30T08:26:24.814Z,6.88
2022-08-30T08:28:26.253Z,6.18
2022-08-30T08:30:28.371Z,6.28
2022-08-30T08:32:29.711Z,6.25
2022-08-30T08:34:31.069Z,6.43
2022-08-30T08:36:33.339Z,6.53
2022-08-30T08:38:34.627Z,6.22
2022-08-30T08:40:54.365Z,6.38
2022-08-30T08:42:55.698Z,6.32
2022-08-30T08:44:57.174Z,6.65
2022-08-30T08:47:04.522Z,6.10
2022-08-30T08:49:08.287Z,5.63
2022-08-30T08:51:29.859Z,6.07
2022-08-30T08:53:52.779Z,6.78
2022-08-30T08:55:54.312Z,6.80
2022-08-30T08:57:56.411Z,6.40
2022-08-30T08:59:58.192Z,7.20
2022-08-30T09:02:02.776Z,6.95
2022-08-30T09:04:15.867Z,6.95
2022-08-30T09:06:37.379Z,6.50
2022-08-30T09:08:40.996Z,6.38
2022-08-30T09:10:50.734Z,6.35
2022-08-30T09:12:56.863Z,6.07
2022-08-30T09:15:08.953Z,7.30
2022-08-30T09:17:12.291Z,6.93
2022-08-30T09:19:28.379Z,6.65
2022-08-30T09:21:35.579Z,6.20
2022-08-30T09:23:36.972Z,6.63
2022-08-30T09:25:41.825Z,6.25
2022-08-30T09:27:44.716Z,6.50
2022-08-30T09:29:54.364Z,6.00
2022-08-30T09:32:25.267Z,6.60
2022-08-30T09:34:19.213Z,7.03
2022-08-30T09:36:33.375Z,7.10
2022-08-30T09:38:34.828Z,6.13
2022-08-30T09:40:44.078Z,6.18
2022-08-30T09:42:58.531Z,6.63
2022-08-30T09:45:11.966Z,6.82
2022-08-30T09:47:24.196Z,6.57
2022-08-30T09:49:29.894Z,7.03
2022-08-30T09:51:34.283Z,6.78
2022-08-30T09:53:38.123Z,5.70
2022-08-30T09:55:47.220Z,6.13
2022-08-30T09:58:07.363Z,6.40
2022-08-30T10:00:13.719Z,6.05
2022-08-30T10:02:15.072Z,5.95
2022-08-30T10:04:30.965Z,6.35
2022-08-30T10:06:36.300Z,6.28
2022-08-30T10:08:46.741Z,6.47
2022-08-30T10:10:48.060Z,5.63
2022-08-30T10:13:06.342Z,6.75
2022-08-30T10:15:18.374Z,6.18
2022-08-30T10:17:51.960Z,6.10
2022-08-30T10:19:56.237Z,6.30
2022-08-30T10:22:04.479Z,5.90
2022-08-30T10:24:14.191Z,6.07
2022-08-30T10:26:37.538Z,5.93
2022-08-30T10:29:08.090Z,6.70
2022-08-30T10:31:27.290Z,6.13
2022-08-30T10:33:33.015Z,6.05
2022-08-30T10:35:39.176Z,6.35
2022-08-30T10:37:46.425Z,6.70
2022-08-30T10:39:50.458Z,6.22
2022-08-30T10:42:00.224Z,6.13
2022-08-30T10:44:20.191Z,6.43
2022-08-30T10:46:24.647Z,7.40
2022-08-30T10:48:40.921Z,6.88
2022-08-30T10:50:48.796Z,6.75
2022-08-30T10:52:54.054Z,5.88
2022-08-30T10:54:59.510Z,6.18
2022-08-30T10:57:02.013Z,6.32
2022-08-30T10:59:04.880Z,6.65
2022-08-30T11:01:12.451Z,6.03
2022-08-30T11:03:22.401Z,6.55
2022-08-30T11:05:47.370Z,6.10
2022-08-30T11:07:59.801Z,6.10
2022-08-30T11:10:03.607Z,6.57
2022-08-30T11:12:17.260Z,7.00
2022-08-30T11:14:19.995Z,6.90
2022-08-30T11:16:37.741Z,8.32
2022-08-30T11:18:53.017Z,6.45
2022-08-30T11:21:14.350Z,6.00
2022-08-30T11:23:18.938Z,6.20
2022-08-30T11:25:41.997Z,6.05
2022-08-30T11:27:48.290Z,5.90
2022-08-30T11:29:49.908Z,6.30
2022-08-30T11:31:51.573Z,6.45
2022-08-30T11:33:55.931Z,6.38
2022-08-30T11:35:58.742Z,6.40
2022-08-30T11:38:00.098Z,6.32
2022-08-30T11:40:19.279Z,5.90
2022-08-30T11:42:29.606Z,5.57
2022-08-30T11:44:32.056Z,6.10
2022-08-30T11:46:38.993Z,5.60
2022-08-30T11:49:05.394Z,5.32
2022-08-30T11:51:33.387Z,6.07
2022-08-30T11:53:51.154Z,5.72
2022-08-30T11:55:56.373Z,5.78
2022-08-30T11:58:06.786Z,5.57
2022-08-30T12:00:28.621Z,5.80
2022-08-30T12:02:43.418Z,5.97
2022-08-30T12:04:46.528Z,5.72
2022-08-30T12:06:51.582Z,5.47
2022-08-30T12:08:57.993Z,6.82
2022-08-30T12:11:23.998Z,5.68
2022-08-30T12:13:34.353Z,6.10
2022-08-30T12:15:54.891Z,5.55
2022-08-30T12:18:16.985Z,5.90
2022-08-30T12:20:21.355Z,5.97
2022-08-30T12:22:23.123Z,5.60
2022-08-30T12:24:36.610Z,5.93
2022-08-30T12:26:39.386Z,4.95
2022-08-30T12:28:43.454Z,5.10
2022-08-30T12:30:46.508Z,5.20
2022-08-30T12:32:50.588Z,5.45
2022-08-30T12:34:57.420Z,5.43
2022-08-30T12:37:05.257Z,5.50
2022-08-30T12:39:15.460Z,5.45
2022-08-30T12:43:28.634Z,5.50
2022-08-30T12:45:50.835Z,5.50
2022-08-30T12:47:55.937Z,5.82
2022-08-30T12:49:58.434Z,6.43
2022-08-30T12:52:18.278Z,5.65
2022-08-30T12:54:22.295Z,6.57
2022-08-30T12:56:49.861Z,5.78
2022-08-30T12:58:52.704Z,5.80
2022-08-30T13:01:11.103Z,5.75
2022-08-30T13:03:30.928Z,6.40
2022-08-30T13:05:32.405Z,6.53
2022-08-30T13:07:35.543Z,6.90
2022-08-30T13:09:39.344Z,5.65
2022-08-30T13:11:41.231Z,6.10
2022-08-30T13:13:52.035Z,6.30
2022-08-30T13:15:54.297Z,5.82
2022-08-30T13:18:16.307Z,6.03
2022-08-30T13:20:19.317Z,5.70
2022-08-30T13:22:39.783Z,6.68
2022-08-30T13:24:41.056Z,5.78
2022-08-30T13:26:45.997Z,6.00
2022-08-30T13:28:52.993Z,6.07
2022-08-30T13:30:54.831Z,5.78
2022-08-30T13:32:56.182Z,5.90
2022-08-30T13:34:57.528Z,6.18
2022-08-30T13:36:59.818Z,5.68
2022-08-30T13:39:01.378Z,5.85
2022-08-30T13:41:02.710Z,5.78
2022-08-30T13:43:04.022Z,6.60
2022-08-30T13:45:40.882Z,6.57
2022-08-30T13:47:34.540Z,7.90
2022-08-30T13:49:44.639Z,6.65
2022-08-30T13:52:09.523Z,6.97
2022-08-30T13:54:09.555Z,6.25
2022-08-30T13:56:14.231Z,6.18
2022-08-30T13:58:16.694Z,6.47
2022-08-30T14:00:21.915Z,6.00
2022-08-30T14:02:25.603Z,5.70
2022-08-30T14:04:32.564Z,5.63
2022-08-30T14:06:34.485Z,5.90
2022-08-30T14:08:47.812Z,5.63
2022-08-30T14:10:51.886Z,6.22
2022-08-30T14:12:53.595Z,6.15
2022-08-30T14:14:59.456Z,6.20
2022-08-30T14:17:01.206Z,6.63
2022-08-30T14:19:05.703Z,5.72
2022-08-30T14:21:07.209Z,6.28
2022-08-30T14:23:10.002Z,6.90
2022-08-30T14:25:11.987Z,6.45
2022-08-30T14:27:18.656Z,6.40
2022-08-30T14:29:25.999Z,5.60
2022-08-30T14:31:27.659Z,6.28
2022-08-30T14:33:33.240Z,5.65
2022-08-30T14:35:37.975Z,6.22
2022-08-30T14:37:40.760Z,5.88
2022-08-30T14:39:42.422Z,6.18
2022-08-30T14:41:45.785Z,6.68
2022-08-30T14:43:47.110Z,6.07
2022-08-30T14:45:48.602Z,6.20
2022-08-30T14:47:50.300Z,6.10
2022-08-30T14:49:53.047Z,6.05
2022-08-30T14:51:54.643Z,6.25
2022-08-30T14:53:56.068Z,6.10
2022-08-30T14:55:57.413Z,6.15
2022-08-30T14:57:58.830Z,6.78
2022-08-30T15:00:00.823Z,6.30
2022-08-30T15:02:02.183Z,6.30
2022-08-30T15:04:03.655Z,5.63
2022-08-30T15:06:08.628Z,5.88
2022-08-30T15:08:10.492Z,6.60
2022-08-30T15:10:14.680Z,5.97
2022-08-30T15:12:16.074Z,5.70
2022-08-30T15:14:17.509Z,5.65
2022-08-30T15:16:21.776Z,6.00
2022-08-30T15:18:24.256Z,6.15
2022-08-30T15:20:27.468Z,6.40
2022-08-30T15:22:28.793Z,6.00
2022-08-30T15:24:30.622Z,6.00
2022-08-30T15:26:31.984Z,5.95
2022-08-30T15:28:33.736Z,5.97
2022-08-30T15:30:35.741Z,6.03
2022-08-30T15:32:37.213Z,5.55
2022-08-30T15:34:38.596Z,5.90
2022-08-30T15:36:40.647Z,5.47
2022-08-30T15:38:43.232Z,6.25
2022-08-30T15:40:46.250Z,5.95
2022-08-30T15:42:47.657Z,6.00
2022-08-30T15:44:52.444Z,6.22
2022-08-30T15:46:53.862Z,5.65
2022-08-30T15:48:59.395Z,5.97
2022-08-30T15:51:00.774Z,6.13
2022-08-30T15:53:02.599Z,5.70
2022-08-30T15:55:04.236Z,5.63
2022-08-30T15:57:05.906Z,6.13
2022-08-30T15:59:07.638Z,5.60
2022-08-30T16:01:12.521Z,6.05
2022-08-30T16:03:14.145Z,5.70
2022-08-30T16:05:15.504Z,5.85
2022-08-30T16:07:16.848Z,5.47
2022-08-30T16:09:19.524Z,6.15
2022-08-30T16:11:22.685Z,5.88
2022-08-30T16:13:24.059Z,6.20
2022-08-30T16:15:25.882Z,6.35
2022-08-30T16:17:27.307Z,6.13
2022-08-30T16:19:28.996Z,6.07
2022-08-30T16:21:32.601Z,6.25
2022-08-30T16:23:34.703Z,6.60
2022-08-30T16:25:40.985Z,6.03
2022-08-30T16:27:42.962Z,6.22
2022-08-30T16:29:44.737Z,6.32
2022-08-30T16:31:49.094Z,6.20
2022-08-30T16:33:52.523Z,6.63
2022-08-30T16:35:56.379Z,6.70
2022-08-30T16:37:57.771Z,6.75
2022-08-30T16:39:59.175Z,6.28
2022-08-30T16:42:03.209Z,6.45
2022-08-30T16:44:06.278Z,6.47
2022-08-30T16:46:10.122Z,6.30
2022-08-30T16:48:12.947Z,5.88
2022-08-30T16:50:16.608Z,5.28
2022-08-30T16:52:19.262Z,5.55
2022-08-30T16:54:21.191Z,5.50
2022-08-30T16:56:24.368Z,5.07
2022-08-30T16:58:28.095Z,5.78
2022-08-30T17:00:29.444Z,5.40
2022-08-30T17:02:30.948Z,5.90
2022-08-30T17:04:32.955Z,5.47
2022-08-30T17:06:35.604Z,4.43
2022-08-30T17:08:39.568Z,5.47
2022-08-30T17:10:43.788Z,4.88
2022-08-30T17:12:48.636Z,4.57
2022-08-30T17:14:50.137Z,4.05
2022-08-30T17:16:51.629Z,4.60
2022-08-30T17:18:52.922Z,4.60
2022-08-30T17:20:54.324Z,4.18
2022-08-30T17:22:55.662Z,3.65
2022-08-30T17:24:57.389Z,3.75
2022-08-30T17:26:58.884Z,3.58
2022-08-30T17:29:00.651Z,3.60
2022-08-30T17:31:02.714Z,2.90
2022-08-30T17:33:04.373Z,3.08
2022-08-30T17:35:06.234Z,3.42
2022-08-30T17:37:07.776Z,3.30
2022-08-30T17:39:11.420Z,3.22
2022-08-30T17:41:13.214Z,3.05
2022-08-30T17:43:14.638Z,3.03
2022-08-30T17:45:16.695Z,3.10
2022-08-30T17:47:19.235Z,3.38
2022-08-30T17:49:21.140Z,3.47
2022-08-30T17:51:22.679Z,3.20
2022-08-30T17:53:24.223Z,2.90
2022-08-30T17:55:25.575Z,3.03
2022-08-30T17:57:26.905Z,2.90
2022-08-30T17:59:31.643Z,3.40
2022-08-30T18:01:34.860Z,3.15
2022-08-30T18:03:38.026Z,3.38
2022-08-30T18:05:41.627Z,3.53
2022-08-30T18:07:43.644Z,3.40
2022-08-30T18:09:45.041Z,3.45
2022-08-30T18:11:46.782Z,3.30
2022-08-30T18:13:49.782Z,3.20
2022-08-30T18:15:51.147Z,3.13
2022-08-30T18:17:52.628Z,3.20
2022-08-30T18:19:53.945Z,2.92
2022-08-30T18:21:56.690Z,3.20
2022-08-30T18:23:58.032Z,2.80
2022-08-30T18:26:02.163Z,3.17
2022-08-30T18:28:04.190Z,2.90
2022-08-30T18:30:06.594Z,3.15
2022-08-30T18:32:12.957Z,3.35
2022-08-30T18:34:14.374Z,3.47
2022-08-30T18:36:15.903Z,3.38
2022-08-30T18:38:17.780Z,3.45
2022-08-30T18:40:25.214Z,3.15
2022-08-30T18:42:26.729Z,3.85
2022-08-30T18:44:29.146Z,3.10
2022-08-30T18:46:30.985Z,3.08
2022-08-30T18:48:33.261Z,3.22
2022-08-30T18:50:36.521Z,4.03
2022-08-30T18:52:38.557Z,2.65
2022-08-30T18:54:48.442Z,2.90
2022-08-30T18:56:53.765Z,3.22
2022-08-30T18:58:56.369Z,3.42
2022-08-30T19:00:57.793Z,2.90
2022-08-30T19:02:59.304Z,2.80
2022-08-30T19:05:00.707Z,2.83
2022-08-30T19:07:02.502Z,2.33
2022-08-30T19:09:03.841Z,2.47
2022-08-30T19:11:10.719Z,2.78
2022-08-30T19:13:12.287Z,2.83
2022-08-30T19:15:13.639Z,2.78
2022-08-30T19:17:15.640Z,2.67
2022-08-30T19:19:17.030Z,2.75
2022-08-30T19:21:18.532Z,2.80
2022-08-30T19:23:23.302Z,2.88
2022-08-30T19:25:25.304Z,2.50
2022-08-30T19:27:37.146Z,2.58
2022-08-30T19:29:39.857Z,2.70
2022-08-30T19:31:42.055Z,2.85
2022-08-30T19:33:43.545Z,2.83
2022-08-30T19:35:50.331Z,2.63
2022-08-30T19:37:52.582Z,2.88
2022-08-30T19:39:53.908Z,5.22
2022-08-30T19:41:55.396Z,3.00
2022-08-30T19:43:57.304Z,2.80
2022-08-30T19:46:03.098Z,8.35
2022-08-30T19:48:04.672Z,6.57
2022-08-30T19:50:07.182Z,7.78
2022-08-30T19:52:10.560Z,4.95
2022-08-30T19:54:12.212Z,4.07
2022-08-30T19:56:13.626Z,4.78
2022-08-30T19:58:15.693Z,4.70
2022-08-30T20:00:17.142Z,4.47
2022-08-30T20:02:21.270Z,6.30
2022-08-30T20:04:22.695Z,5.15
2022-08-30T20:06:24.049Z,4.80
2022-08-30T20:08:25.438Z,5.18
2022-08-30T20:10:27.302Z,6.53
2022-08-30T20:12:28.675Z,4.25
2022-08-30T20:14:30.035Z,4.90
2022-08-30T20:16:36.089Z,4.90
2022-08-30T20:18:39.900Z,3.78
2022-08-30T20:20:49.551Z,4.35
2022-08-30T20:22:54.367Z,3.80
2022-08-30T20:24:56.369Z,3.50
2022-08-30T20:26:59.102Z,4.50
2022-08-30T20:29:00.808Z,8.10
2022-08-30T20:31:03.375Z,5.18
2022-08-30T20:33:08.518Z,4.38
2022-08-30T20:35:10.910Z,3.67
2022-08-30T20:37:14.355Z,8.40
2022-08-30T20:39:17.603Z,5.10
2022-08-30T20:41:19.878Z,3.50
2022-08-30T20:43:22.794Z,5.22
2022-08-30T20:45:24.270Z,4.43
2022-08-30T20:47:34.809Z,3.20
2022-08-30T20:49:36.632Z,3.33
2022-08-30T20:51:39.435Z,3.20
2022-08-30T20:53:41.191Z,3.33
2022-08-30T20:55:43.166Z,3.70
2022-08-30T20:57:44.572Z,3.40
2022-08-30T20:59:47.155Z,3.10
2022-08-30T21:01:48.543Z,3.38
2022-08-30T21:03:51.435Z,3.67
2022-08-30T21:05:52.968Z,3.28
2022-08-30T21:07:54.446Z,3.33
2022-08-30T21:09:56.835Z,2.88
2022-08-30T21:11:58.171Z,3.25
2022-08-30T21:13:59.562Z,3.33
2022-08-30T21:16:03.777Z,3.25
2022-08-30T21:18:05.901Z,3.67
2022-08-30T21:20:07.918Z,2.88
2022-08-30T21:22:09.386Z,2.88
2022-08-30T21:24:10.789Z,3.28
2022-08-30T21:26:12.113Z,3.13
2022-08-30T21:28:13.484Z,3.00
2022-08-30T21:30:15.610Z,3.30
2022-08-30T21:32:16.956Z,3.22
2022-08-30T21:34:18.425Z,3.17
2022-08-30T21:36:38.977Z,2.80
2022-08-30T21:40:41.634Z,3.40
2022-08-30T21:42:46.161Z,2.88
2022-08-30T21:44:47.484Z,3.25
2022-08-30T21:46:50.507Z,2.75
2022-08-30T21:48:51.981Z,3.50
2022-08-30T21:50:56.377Z,3.10
2022-08-30T21:52:58.062Z,3.03
2022-08-30T21:55:00.134Z,3.20
2022-08-30T21:57:02.279Z,3.13
2022-08-30T21:59:04.954Z,3.35
2022-08-30T22:01:13.805Z,3.17
2022-08-30T22:03:15.906Z,3.42
2022-08-30T22:05:17.558Z,3.28
2022-08-30T22:07:18.839Z,3.33
2022-08-30T22:09:24.659Z,3.10
2022-08-30T22:11:26.500Z,3.35
2022-08-30T22:13:27.908Z,3.22
2022-08-30T22:15:29.596Z,3.50
2022-08-30T22:17:31.045Z,3.72
2022-08-30T22:19:33.786Z,3.40
2022-08-30T22:21:36.464Z,3.53
2022-08-30T22:23:38.294Z,3.45
2022-08-30T22:25:39.727Z,3.20
2022-08-30T22:27:41.031Z,3.40
2022-08-30T22:29:42.447Z,3.45
2022-08-30T22:31:43.847Z,3.50
2022-08-30T22:33:46.885Z,3.60
2022-08-30T22:35:48.258Z,3.63
2022-08-30T22:37:51.149Z,3.83
2022-08-30T22:39:54.765Z,3.60
2022-08-30T22:41:56.271Z,4.03
2022-08-30T22:43:57.630Z,4.22
2022-08-30T22:45:59.190Z,4.20
2022-08-30T22:48:00.518Z,3.80
2022-08-30T22:50:02.006Z,3.92
2022-08-30T22:52:03.450Z,4.55
2022-08-30T22:54:05.586Z,4.30
2022-08-30T22:56:07.851Z,4.15
2022-08-30T22:58:09.339Z,4.45
2022-08-30T23:00:15.012Z,4.03
2022-08-30T23:02:16.987Z,3.97
2022-08-30T23:04:18.366Z,3.88
2022-08-30T23:06:19.690Z,3.97
2022-08-30T23:08:21.050Z,3.72
2022-08-30T23:10:27.934Z,4.25
2022-08-30T23:12:29.358Z,3.90
2022-08-30T23:14:30.823Z,3.60
2022-08-30T23:16:32.834Z,4.43
2022-08-30T23:18:35.191Z,4.13
2022-08-30T23:20:36.617Z,4.55
2022-08-30T23:22:37.921Z,4.28
2022-08-30T23:24:57.558Z,4.07
2022-08-30T23:27:18.127Z,5.10
2022-08-30T23:29:38.135Z,4.18
2022-08-30T23:31:57.873Z,3.88
2022-08-30T23:34:17.953Z,3.10
2022-08-30T23:36:37.619Z,3.55
2022-08-30T23:38:57.614Z,3.10
2022-08-30T23:41:17.870Z,97.20
2022-08-30T23:43:37.844Z,70.63
2022-08-30T23:45:57.673Z,45.85
2022-08-30T23:48:17.499Z,33.60
2022-08-30T23:50:37.215Z,27.27
2022-08-30T23:52:56.889Z,4.47
2022-08-30T23:55:17.221Z,3.83
2022-08-30T23:57:37.375Z,3.20
2022-08-30T23:59:57.158Z,3.25
